createdAt,value
2018-12-01T00:00:33.425Z,-4.89
2018-12-01T00:04:03.646Z,-4.93
2018-12-01T00:07:33.746Z,-4.94
2018-12-01T00:11:04.156Z,-5.08
2018-12-01T00:14:34.256Z,-5.06
2018-12-01T00:18:04.625Z,-5.07
2018-12-01T00:21:34.746Z,-5.02
2018-12-01T00:25:05.935Z,-5
2018-12-01T00:28:36.218Z,-5.13
2018-12-01T00:32:06.250Z,-5.19
2018-12-01T00:35:36.366Z,-5.19
2018-12-01T00:39:06.649Z,-5.25
2018-12-01T00:42:37.237Z,-5.24
2018-12-01T00:46:07.316Z,-5.21
2018-12-01T00:49:37.328Z,-5.26
2018-12-01T00:53:07.436Z,-5.36
2018-12-01T00:56:37.576Z,-5.3
2018-12-01T01:00:15.977Z,-5.25
2018-12-01T01:03:46.116Z,-5.23
2018-12-01T01:07:16.147Z,-5.49
2018-12-01T01:10:46.307Z,-5.4
2018-12-01T01:14:16.417Z,-5.37
2018-12-01T01:17:46.526Z,-5.3
2018-12-01T01:21:16.737Z,-5.25
2018-12-01T01:24:46.957Z,-5.29
2018-12-01T01:28:17.087Z,-5.18
2018-12-01T01:31:47.117Z,-5.18
2018-12-01T01:35:17.128Z,-5.15
2018-12-01T01:38:47.187Z,-5.16
2018-12-01T01:42:17.218Z,-5.11
2018-12-01T01:45:47.412Z,-5.14
2018-12-01T01:49:17.508Z,-5.15
2018-12-01T01:52:47.898Z,-5.13
2018-12-01T01:56:17.888Z,-5.15
2018-12-01T01:59:47.998Z,-5.13
2018-12-01T02:00:17.798Z,-5.13
2018-12-01T02:03:47.848Z,-5.16
2018-12-01T02:07:17.959Z,-5.1
2018-12-01T02:10:48.088Z,-5.13
2018-12-01T02:14:18.499Z,-5.23
2018-12-01T02:17:48.720Z,-5.19
2018-12-01T02:21:18.819Z,-5.23
2018-12-01T02:24:48.809Z,-5.24
2018-12-01T02:28:19.059Z,-5.3
2018-12-01T02:31:49.090Z,-5.33
2018-12-01T02:35:27.320Z,-5.41
2018-12-01T02:38:57.380Z,-5.51
2018-12-01T02:42:27.338Z,-5.5
2018-12-01T02:48:09.312Z,-5.55
2018-12-01T02:51:39.390Z,-5.6
2018-12-01T02:55:09.620Z,-5.57
2018-12-01T02:58:39.801Z,-5.5
2018-12-01T03:02:09.976Z,-5.5
2018-12-01T03:05:40.050Z,-5.42
2018-12-01T03:09:10.150Z,-5.31
2018-12-01T03:12:40.260Z,-5.24
2018-12-01T03:16:10.260Z,-5.33
2018-12-01T03:19:40.340Z,-5.34
2018-12-01T03:23:10.410Z,-5.37
2018-12-01T03:26:40.490Z,-5.42
2018-12-01T03:30:10.714Z,-5.43
2018-12-01T03:33:40.872Z,-5.37
2018-12-01T03:37:10.885Z,-5.33
2018-12-01T03:40:48.081Z,-5.24
2018-12-01T03:44:18.161Z,-5.2
2018-12-01T03:47:48.365Z,-5.16
2018-12-01T03:51:18.372Z,-5.16
2018-12-01T03:54:48.367Z,-5.16
2018-12-01T03:58:18.472Z,-5.15
2018-12-01T04:00:26.025Z,-5.16
2018-12-01T04:03:56.051Z,-5.15
2018-12-01T04:07:28.061Z,-5.1
2018-12-01T04:10:58.191Z,-5.05
2018-12-01T04:14:28.221Z,-5.03
2018-12-01T04:17:58.271Z,-5.1
2018-12-01T04:21:28.271Z,-5.28
2018-12-01T04:24:58.312Z,-5.31
2018-12-01T04:28:28.382Z,-5.38
2018-12-01T04:31:58.552Z,-5.43
2018-12-01T04:35:28.521Z,-5.37
2018-12-01T04:38:58.631Z,-5.32
2018-12-01T04:42:28.605Z,-5.26
2018-12-01T04:45:58.672Z,-5.28
2018-12-01T04:49:28.982Z,-5.22
2018-12-01T04:52:58.992Z,-5.22
2018-12-01T04:56:29.002Z,-5.24
2018-12-01T04:59:59.134Z,-5.27
2018-12-01T05:03:29.182Z,-5.38
2018-12-01T05:06:59.262Z,-5.4
2018-12-01T05:10:29.222Z,-5.44
2018-12-01T05:13:59.263Z,-5.44
2018-12-01T05:17:29.422Z,-5.48
2018-12-01T05:20:59.624Z,-5.45
2018-12-01T05:24:29.564Z,-5.37
2018-12-01T05:27:59.638Z,-5.33
2018-12-01T05:31:29.653Z,-5.28
2018-12-01T05:34:59.723Z,-5.22
2018-12-01T05:38:29.771Z,-5.1
2018-12-01T05:41:59.803Z,-5
2018-12-01T05:45:29.862Z,-4.93
2018-12-01T05:48:59.882Z,-4.81
2018-12-01T05:52:30.033Z,-4.66
2018-12-01T05:56:00.123Z,-4.55
2018-12-01T05:59:30.006Z,-4.41
2018-12-01T06:00:16.783Z,-4.39
2018-12-01T06:03:46.883Z,-4.31
2018-12-01T06:07:16.915Z,-4.26
2018-12-01T06:10:47.002Z,-4.16
2018-12-01T06:14:17.142Z,-4.07
2018-12-01T06:17:47.243Z,-3.87
2018-12-01T06:21:17.340Z,-3.74
2018-12-01T06:24:47.368Z,-3.64
2018-12-01T06:28:17.401Z,-3.46
2018-12-01T06:31:47.524Z,-3.24
2018-12-01T06:35:17.619Z,-3.09
2018-12-01T06:38:47.705Z,-2.91
2018-12-01T06:42:17.766Z,-2.68
2018-12-01T06:45:48.061Z,-2.62
2018-12-01T06:49:18.152Z,-2.52
2018-12-01T06:52:49.265Z,-2.37
2018-12-01T06:56:19.390Z,-2.23
2018-12-01T06:59:49.467Z,-1.98
2018-12-01T07:03:19.551Z,-1.83
2018-12-01T07:06:49.568Z,-1.81
2018-12-01T07:10:20.466Z,-1.72
2018-12-01T07:13:50.512Z,-1.72
2018-12-01T07:17:20.631Z,-1.69
2018-12-01T07:20:50.717Z,-1.73
2018-12-01T07:24:20.759Z,-1.67
2018-12-01T07:27:50.832Z,-1.78
2018-12-01T07:31:20.845Z,-1.79
2018-12-01T07:34:50.888Z,-1.79
2018-12-01T07:38:20.908Z,-1.8
2018-12-01T07:41:51.070Z,-1.84
2018-12-01T07:45:21.151Z,-1.69
2018-12-01T07:48:51.274Z,-1.5
2018-12-01T07:52:21.354Z,-1.31
2018-12-01T07:55:51.911Z,-1.18
2018-12-01T07:59:21.916Z,-1.06
2018-12-01T08:00:16.215Z,-1.04
2018-12-01T08:03:46.365Z,-1.05
2018-12-01T08:07:16.333Z,-0.8
2018-12-01T08:10:46.441Z,-0.66
2018-12-01T08:14:16.610Z,-0.51
2018-12-01T08:17:46.650Z,-0.62
2018-12-01T08:21:16.929Z,-0.68
2018-12-01T08:24:47.059Z,-0.57
2018-12-01T08:28:20.055Z,-0.44
2018-12-01T08:31:50.158Z,-0.16
2018-12-01T08:35:20.455Z,-0.25
2018-12-01T08:38:50.497Z,-0.44
2018-12-01T08:42:20.477Z,-0.33
2018-12-01T08:45:50.506Z,-0.5
2018-12-01T08:49:20.561Z,-0.39
2018-12-01T08:52:51.285Z,-0.31
2018-12-01T08:56:21.542Z,-0.28
2018-12-01T08:59:51.690Z,-0.27
2018-12-01T09:03:22.188Z,-0.16
2018-12-01T09:06:52.290Z,-0.03
2018-12-01T09:10:22.287Z,0.04
2018-12-01T09:13:52.685Z,0.07
2018-12-01T09:17:22.775Z,0.14
2018-12-01T09:20:52.806Z,0.11
2018-12-01T09:24:22.830Z,0.3
2018-12-01T09:27:52.935Z,0.27
2018-12-01T09:31:23.003Z,0.26
2018-12-01T09:34:53.022Z,0.42
2018-12-01T09:38:24.155Z,0.62
2018-12-01T09:41:54.267Z,0.74
2018-12-01T09:45:24.763Z,0.89
2018-12-01T09:48:54.784Z,0.78
2018-12-01T09:52:24.825Z,1.01
2018-12-01T09:55:54.965Z,1.28
2018-12-01T09:59:25.185Z,1.19
2018-12-01T10:00:19.756Z,1.24
2018-12-01T10:03:49.856Z,1.53
2018-12-01T10:07:19.780Z,1.67
2018-12-01T10:10:49.952Z,1.8
2018-12-01T10:14:19.946Z,1.96
2018-12-01T10:17:50.106Z,2.12
2018-12-01T10:21:20.036Z,2.4
2018-12-01T10:24:50.056Z,2.73
2018-12-01T10:28:20.115Z,2.8
2018-12-01T10:31:50.356Z,3.28
2018-12-01T10:35:21.845Z,3.59
2018-12-01T10:38:51.908Z,3.84
2018-12-01T10:42:21.997Z,4.18
2018-12-01T10:45:52.031Z,4.51
2018-12-01T10:49:22.147Z,4.96
2018-12-01T10:52:53.208Z,5.09
2018-12-01T10:56:23.430Z,4.97
2018-12-01T10:59:53.857Z,5.22
2018-12-01T11:03:56.266Z,5.56
2018-12-01T11:07:26.318Z,5.78
2018-12-01T11:10:56.401Z,5.94
2018-12-01T11:14:26.448Z,6.02
2018-12-01T11:17:56.649Z,5.97
2018-12-01T11:21:26.959Z,5.91
2018-12-01T11:24:57.049Z,5.92
2018-12-01T11:28:27.239Z,6.27
2018-12-01T11:31:57.540Z,6.43
2018-12-01T11:35:28.035Z,6.15
2018-12-01T11:38:58.120Z,6.48
2018-12-01T11:42:28.171Z,6.33
2018-12-01T11:45:58.594Z,6.25
2018-12-01T11:49:28.741Z,5.63
2018-12-01T11:52:58.876Z,5.95
2018-12-01T11:56:29.033Z,6.14
2018-12-01T11:59:59.163Z,6.32
2018-12-01T12:00:17.433Z,6.32
2018-12-01T12:03:47.594Z,6.55
2018-12-01T12:08:22.867Z,6.45
2018-12-01T12:11:52.994Z,6.06
2018-12-01T12:15:23.714Z,5.94
2018-12-01T12:18:53.856Z,5.82
2018-12-01T12:22:23.877Z,5.62
2018-12-01T12:25:54.066Z,5.93
2018-12-01T12:29:24.087Z,6.3
2018-12-01T12:32:54.093Z,5.93
2018-12-01T12:36:24.092Z,5.94
2018-12-01T12:39:54.108Z,6.05
2018-12-01T12:43:24.068Z,5.9
2018-12-01T12:46:54.165Z,6.14
2018-12-01T12:50:24.229Z,6.2
2018-12-01T12:53:54.389Z,6.38
2018-12-01T12:57:24.429Z,6.33
2018-12-01T13:00:54.580Z,6.31
2018-12-01T13:04:24.631Z,5.92
2018-12-01T13:07:54.896Z,6.11
2018-12-01T13:11:24.981Z,6.04
2018-12-01T13:14:55.061Z,5.84
2018-12-01T13:18:25.171Z,5.35
2018-12-01T13:21:55.227Z,5.35
2018-12-01T13:25:25.272Z,5.26
2018-12-01T13:28:55.352Z,5.17
2018-12-01T13:32:25.473Z,5.32
2018-12-01T13:35:56.124Z,5.25
2018-12-01T13:39:26.150Z,5.1
2018-12-01T13:42:56.304Z,4.88
2018-12-01T13:46:26.334Z,4.82
2018-12-01T13:49:56.325Z,4.73
2018-12-01T13:53:26.345Z,4.51
2018-12-01T13:56:56.536Z,4.53
2018-12-01T14:00:18.750Z,4.43
2018-12-01T14:03:49.007Z,4.33
2018-12-01T14:07:19.044Z,4.32
2018-12-01T14:10:49.773Z,4.26
2018-12-01T14:14:19.853Z,4.1
2018-12-01T14:17:50.078Z,3.78
2018-12-01T14:21:20.128Z,3.49
2018-12-01T14:24:50.410Z,3.2
2018-12-01T14:28:20.423Z,2.79
2018-12-01T14:31:50.529Z,2.55
2018-12-01T14:35:23.578Z,2.21
2018-12-01T14:38:53.645Z,1.93
2018-12-01T14:42:23.655Z,1.77
2018-12-01T14:45:53.740Z,1.56
2018-12-01T14:49:23.810Z,1.37
2018-12-01T14:52:54.915Z,1.17
2018-12-01T14:56:25.070Z,0.94
2018-12-01T14:59:55.120Z,0.82
2018-12-01T15:03:25.966Z,0.77
2018-12-01T15:06:56.300Z,0.64
2018-12-01T15:10:26.350Z,0.64
2018-12-01T15:13:56.460Z,0.6
2018-12-01T15:17:26.520Z,0.65
2018-12-01T15:20:56.610Z,0.62
2018-12-01T15:24:26.682Z,0.61
2018-12-01T15:27:56.984Z,0.61
2018-12-01T15:31:26.990Z,0.6
2018-12-01T15:34:57.210Z,0.55
2018-12-01T15:38:27.282Z,0.6
2018-12-01T15:41:57.420Z,0.51
2018-12-01T15:45:27.532Z,0.49
2018-12-01T15:48:57.651Z,0.44
2018-12-01T15:52:27.669Z,0.52
2018-12-01T15:55:57.780Z,0.51
2018-12-01T15:59:27.771Z,0.55
2018-12-01T16:00:17.901Z,0.56
2018-12-01T16:03:48.091Z,0.6
2018-12-01T16:07:18.406Z,0.63
2018-12-01T16:10:48.491Z,0.66
2018-12-01T16:14:18.591Z,0.64
2018-12-01T16:17:49.151Z,0.6
2018-12-01T16:21:19.166Z,0.61
2018-12-01T16:24:49.312Z,0.53
2018-12-01T16:28:19.526Z,0.54
2018-12-01T16:31:49.592Z,0.53
2018-12-01T16:35:19.681Z,0.54
2018-12-01T16:38:49.917Z,0.49
2018-12-01T16:42:20.253Z,0.48
2018-12-01T16:45:50.983Z,0.51
2018-12-01T16:49:21.102Z,0.56
2018-12-01T16:52:51.172Z,0.53
2018-12-01T16:56:21.352Z,0.54
2018-12-01T16:59:51.412Z,0.54
2018-12-01T17:03:21.482Z,0.54
2018-12-01T17:06:51.567Z,0.54
2018-12-01T17:10:21.984Z,0.55
2018-12-01T17:13:52.203Z,0.61
2018-12-01T17:17:22.211Z,0.67
2018-12-01T17:20:52.263Z,0.67
2018-12-01T17:24:22.383Z,0.61
2018-12-01T17:27:53.773Z,0.54
2018-12-01T17:31:23.843Z,0.56
2018-12-01T17:34:53.957Z,0.53
2018-12-01T17:38:24.138Z,0.54
2018-12-01T17:41:56.116Z,0.6
2018-12-01T17:45:26.177Z,0.67
2018-12-01T17:48:56.368Z,0.71
2018-12-01T17:52:26.534Z,0.73
2018-12-01T17:55:56.654Z,0.72
2018-12-01T17:59:26.695Z,0.71
2018-12-01T18:00:18.326Z,0.72
2018-12-01T18:03:48.360Z,0.68
2018-12-01T18:07:18.384Z,0.71
2018-12-01T18:10:49.975Z,0.66
2018-12-01T18:14:20.045Z,0.67
2018-12-01T18:17:50.115Z,0.67
2018-12-01T18:21:20.145Z,0.72
2018-12-01T18:24:50.171Z,0.75
2018-12-01T18:28:23.168Z,0.75
2018-12-01T18:31:53.216Z,0.74
2018-12-01T18:35:23.285Z,0.72
2018-12-01T18:38:53.456Z,0.66
2018-12-01T18:42:23.546Z,0.69
2018-12-01T18:45:56.649Z,0.78
2018-12-01T18:49:26.716Z,0.75
2018-12-01T18:52:59.496Z,0.77
2018-12-01T18:56:29.516Z,0.76
2018-12-01T18:59:59.579Z,0.78
2018-12-01T19:03:31.386Z,0.77
2018-12-01T19:07:01.406Z,0.85
2018-12-01T19:10:31.572Z,0.85
2018-12-01T19:14:01.908Z,0.83
2018-12-01T19:17:31.937Z,0.86
2018-12-01T19:21:02.067Z,0.88
2018-12-01T19:24:32.188Z,0.92
2018-12-01T19:28:02.277Z,1.01
2018-12-01T19:31:32.377Z,1.06
2018-12-01T19:35:03.148Z,1.09
2018-12-01T19:38:33.159Z,1.08
2018-12-01T19:42:03.421Z,1.1
2018-12-01T19:45:33.537Z,1.04
2018-12-01T19:49:04.168Z,0.97
2018-12-01T19:52:34.168Z,0.96
2018-12-01T19:56:04.307Z,0.93
2018-12-01T19:59:34.508Z,0.97
2018-12-01T20:00:19.038Z,0.95
2018-12-01T20:03:49.219Z,0.91
2018-12-01T20:07:19.504Z,0.89
2018-12-01T20:11:05.961Z,0.85
2018-12-01T20:14:36.309Z,0.87
2018-12-01T20:18:12.169Z,0.88
2018-12-01T20:21:42.269Z,0.95
2018-12-01T20:25:13.049Z,0.92
2018-12-01T20:28:43.349Z,0.97
2018-12-01T20:32:13.452Z,0.99
2018-12-01T20:35:53.660Z,0.97
2018-12-01T20:39:34.732Z,0.93
2018-12-01T20:43:04.939Z,0.91
2018-12-01T20:46:35.032Z,0.88
2018-12-01T20:50:09.980Z,0.89
2018-12-01T20:53:40.078Z,0.93
2018-12-01T20:57:12.979Z,0.85
2018-12-01T21:00:43.170Z,0.97
2018-12-01T21:04:13.110Z,0.96
2018-12-01T21:07:43.099Z,0.93
2018-12-01T21:11:13.941Z,0.88
2018-12-01T21:14:44.195Z,0.96
2018-12-01T21:18:14.291Z,0.97
2018-12-01T21:21:44.341Z,0.95
2018-12-01T21:25:16.008Z,1.02
2018-12-01T21:28:46.071Z,1.09
2018-12-01T21:32:16.151Z,1.13
2018-12-01T21:35:46.163Z,1.14
2018-12-01T21:39:16.231Z,1.23
2018-12-01T21:42:46.402Z,1.22
2018-12-01T21:46:16.472Z,1.22
2018-12-01T21:49:46.642Z,1.2
2018-12-01T21:53:20.572Z,1.19
2018-12-01T21:56:50.582Z,1.18
2018-12-01T22:00:18.652Z,1.15
2018-12-01T22:03:48.812Z,1.14
2018-12-01T22:07:18.873Z,1.07
2018-12-01T22:10:51.592Z,1.08
2018-12-01T22:14:21.597Z,0.98
2018-12-01T22:17:51.843Z,1
2018-12-01T22:21:21.813Z,1.06
2018-12-01T22:24:51.872Z,1.05
2018-12-01T22:28:21.922Z,1.07
2018-12-01T22:31:52.043Z,1.05
2018-12-01T22:35:23.373Z,1.02
2018-12-01T22:38:53.473Z,1.05
2018-12-01T22:42:23.533Z,1.13
2018-12-01T22:45:53.523Z,1.12
2018-12-01T22:49:23.534Z,1.07
2018-12-01T22:52:54.068Z,1.07
2018-12-01T22:56:28.770Z,1.02
2018-12-01T22:59:59.124Z,1.04
2018-12-01T23:03:30.884Z,0.99
2018-12-01T23:07:00.908Z,0.99
2018-12-01T23:10:30.998Z,1.02
2018-12-01T23:14:01.184Z,1.11
2018-12-01T23:17:31.345Z,1.13
2018-12-01T23:21:01.627Z,1.15
2018-12-01T23:24:31.690Z,1.15
2018-12-01T23:28:01.825Z,1.1
2018-12-01T23:31:32.095Z,1.05
2018-12-01T23:35:02.211Z,0.97
2018-12-01T23:38:32.265Z,1
2018-12-01T23:42:02.385Z,1.09
2018-12-01T23:45:32.446Z,1.02
2018-12-01T23:49:02.526Z,1.02
2018-12-01T23:52:32.538Z,0.97
2018-12-01T23:56:02.666Z,0.93
2018-12-01T23:59:32.686Z,0.94
